sensor_id;sensor_type;location;lat;lon;timestamp;temperature;humidity
15288;DHT22;7745;48.708;9.026;2022-09-17T00:02:02;10.60;99.90
15288;DHT22;7745;48.708;9.026;2022-09-17T00:04:29;10.60;99.90
15288;DHT22;7745;48.708;9.026;2022-09-17T00:06:58;10.50;99.90
15288;DHT22;7745;48.708;9.026;2022-09-17T00:09:24;10.50;99.90
15288;DHT22;7745;48.708;9.026;2022-09-17T00:11:51;10.60;99.90
15288;DHT22;7745;48.708;9.026;2022-09-17T00:14:18;10.50;99.90
15288;DHT22;7745;48.708;9.026;2022-09-17T00:16:46;10.40;99.90
15288;DHT22;7745;48.708;9.026;2022-09-17T00:19:15;10.30;99.90
15288;DHT22;7745;48.708;9.026;2022-09-17T00:21:42;10.40;99.90
15288;DHT22;7745;48.708;9.026;2022-09-17T00:24:11;10.30;99.90
15288;DHT22;7745;48.708;9.026;2022-09-17T00:26:38;10.20;99.90
15288;DHT22;7745;48.708;9.026;2022-09-17T00:29:05;10.20;99.90
15288;DHT22;7745;48.708;9.026;2022-09-17T00:31:33;10.40;99.90
15288;DHT22;7745;48.708;9.026;2022-09-17T00:34:00;10.30;99.90
15288;DHT22;7745;48.708;9.026;2022-09-17T00:36:28;10.30;99.90
15288;DHT22;7745;48.708;9.026;2022-09-17T00:38:57;10.30;99.90
15288;DHT22;7745;48.708;9.026;2022-09-17T00:41:27;10.40;99.90
15288;DHT22;7745;48.708;9.026;2022-09-17T00:43:55;10.40;99.90
15288;DHT22;7745;48.708;9.026;2022-09-17T00:46:31;10.40;99.90
15288;DHT22;7745;48.708;9.026;2022-09-17T00:49:02;10.50;99.90
15288;DHT22;7745;48.708;9.026;2022-09-17T00:51:33;10.50;99.90
15288;DHT22;7745;48.708;9.026;2022-09-17T00:54:03;10.50;99.90
15288;DHT22;7745;48.708;9.026;2022-09-17T00:56:34;10.60;99.90
15288;DHT22;7745;48.708;9.026;2022-09-17T00:59:02;10.60;99.90
15288;DHT22;7745;48.708;9.026;2022-09-17T01:01:29;10.70;99.90
15288;DHT22;7745;48.708;9.026;2022-09-17T01:03:56;10.60;99.90
15288;DHT22;7745;48.708;9.026;2022-09-17T01:06:31;10.60;99.90
15288;DHT22;7745;48.708;9.026;2022-09-17T01:09:09;10.60;99.90
15288;DHT22;7745;48.708;9.026;2022-09-17T01:12:03;10.60;99.90
15288;DHT22;7745;48.708;9.026;2022-09-17T01:14:43;10.60;99.90
15288;DHT22;7745;48.708;9.026;2022-09-17T01:17:14;10.60;99.90
15288;DHT22;7745;48.708;9.026;2022-09-17T01:22:45;10.50;99.90
15288;DHT22;7745;48.708;9.026;2022-09-17T01:25:21;10.50;99.90
15288;DHT22;7745;48.708;9.026;2022-09-17T01:28:19;10.50;99.90
15288;DHT22;7745;48.708;9.026;2022-09-17T01:33:51;10.50;99.90
15288;DHT22;7745;48.708;9.026;2022-09-17T01:36:30;10.40;99.90
15288;DHT22;7745;48.708;9.026;2022-09-17T01:39:05;10.40;99.90
15288;DHT22;7745;48.708;9.026;2022-09-17T01:41:42;10.40;99.90
15288;DHT22;7745;48.708;9.026;2022-09-17T01:44:14;10.40;99.90
15288;DHT22;7745;48.708;9.026;2022-09-17T01:46:47;10.50;99.90
15288;DHT22;7745;48.708;9.026;2022-09-17T01:49:16;10.30;99.90
15288;DHT22;7745;48.708;9.026;2022-09-17T01:51:46;10.50;99.90
15288;DHT22;7745;48.708;9.026;2022-09-17T01:54:17;10.30;99.90
15288;DHT22;7745;48.708;9.026;2022-09-17T01:56:49;10.40;99.90
15288;DHT22;7745;48.708;9.026;2022-09-17T01:59:20;10.40;99.90
15288;DHT22;7745;48.708;9.026;2022-09-17T02:01:50;10.30;99.90
15288;DHT22;7745;48.708;9.026;2022-09-17T02:04:23;10.30;99.90
15288;DHT22;7745;48.708;9.026;2022-09-17T02:06:58;10.30;99.90
15288;DHT22;7745;48.708;9.026;2022-09-17T02:09:30;10.40;99.90
15288;DHT22;7745;48.708;9.026;2022-09-17T02:12:01;10.30;99.90
15288;DHT22;7745;48.708;9.026;2022-09-17T02:14:32;10.30;99.90
15288;DHT22;7745;48.708;9.026;2022-09-17T02:17:07;10.30;99.90
15288;DHT22;7745;48.708;9.026;2022-09-17T02:19:39;10.40;99.90
15288;DHT22;7745;48.708;9.026;2022-09-17T02:22:13;10.40;99.90
15288;DHT22;7745;48.708;9.026;2022-09-17T02:24:45;10.30;99.90
15288;DHT22;7745;48.708;9.026;2022-09-17T02:27:23;10.30;99.90
15288;DHT22;7745;48.708;9.026;2022-09-17T02:29:56;10.30;99.90
15288;DHT22;7745;48.708;9.026;2022-09-17T02:32:24;10.20;99.90
15288;DHT22;7745;48.708;9.026;2022-09-17T02:34:51;10.30;99.90
15288;DHT22;7745;48.708;9.026;2022-09-17T02:37:18;10.30;99.90
15288;DHT22;7745;48.708;9.026;2022-09-17T02:39:45;10.40;99.90
15288;DHT22;7745;48.708;9.026;2022-09-17T02:42:20;10.30;99.90
15288;DHT22;7745;48.708;9.026;2022-09-17T02:44:56;10.30;99.90
15288;DHT22;7745;48.708;9.026;2022-09-17T02:47:44;10.30;99.90
15288;DHT22;7745;48.708;9.026;2022-09-17T02:53:13;10.20;99.90
15288;DHT22;7745;48.708;9.026;2022-09-17T02:55:51;10.30;99.90
15288;DHT22;7745;48.708;9.026;2022-09-17T02:58:25;10.20;99.90
15288;DHT22;7745;48.708;9.026;2022-09-17T03:00:55;10.30;99.90
15288;DHT22;7745;48.708;9.026;2022-09-17T03:03:28;10.20;99.90
15288;DHT22;7745;48.708;9.026;2022-09-17T03:05:56;10.10;99.90
15288;DHT22;7745;48.708;9.026;2022-09-17T03:08:27;10.00;99.90
15288;DHT22;7745;48.708;9.026;2022-09-17T03:10:55;10.10;99.90
15288;DHT22;7745;48.708;9.026;2022-09-17T03:13:22;10.00;99.90
15288;DHT22;7745;48.708;9.026;2022-09-17T03:15:49;10.00;99.90
15288;DHT22;7745;48.708;9.026;2022-09-17T03:18:16;10.00;99.90
15288;DHT22;7745;48.708;9.026;2022-09-17T03:20:44;9.90;99.90
15288;DHT22;7745;48.708;9.026;2022-09-17T03:23:11;10.00;99.90
15288;DHT22;7745;48.708;9.026;2022-09-17T03:25:38;9.90;99.90
15288;DHT22;7745;48.708;9.026;2022-09-17T03:28:04;9.90;99.90
15288;DHT22;7745;48.708;9.026;2022-09-17T03:30:31;9.90;99.90
15288;DHT22;7745;48.708;9.026;2022-09-17T03:32:58;10.00;99.90
15288;DHT22;7745;48.708;9.026;2022-09-17T03:35:25;9.90;99.90
15288;DHT22;7745;48.708;9.026;2022-09-17T03:37:53;10.00;99.90
15288;DHT22;7745;48.708;9.026;2022-09-17T03:40:20;10.00;99.90
15288;DHT22;7745;48.708;9.026;2022-09-17T03:42:47;10.00;99.90
15288;DHT22;7745;48.708;9.026;2022-09-17T03:45:13;9.90;99.90
15288;DHT22;7745;48.708;9.026;2022-09-17T03:47:40;9.90;99.90
15288;DHT22;7745;48.708;9.026;2022-09-17T03:50:07;9.90;99.90
15288;DHT22;7745;48.708;9.026;2022-09-17T03:52:34;9.90;99.90
15288;DHT22;7745;48.708;9.026;2022-09-17T03:55:03;9.90;99.90
15288;DHT22;7745;48.708;9.026;2022-09-17T03:57:30;9.90;99.90
15288;DHT22;7745;48.708;9.026;2022-09-17T03:59:56;9.90;99.90
15288;DHT22;7745;48.708;9.026;2022-09-17T04:02:23;9.90;99.90
15288;DHT22;7745;48.708;9.026;2022-09-17T04:04:50;10.00;99.90
15288;DHT22;7745;48.708;9.026;2022-09-17T04:07:18;10.00;99.90
15288;DHT22;7745;48.708;9.026;2022-09-17T04:09:45;9.90;99.90
15288;DHT22;7745;48.708;9.026;2022-09-17T04:12:14;9.90;99.90
15288;DHT22;7745;48.708;9.026;2022-09-17T04:14:41;9.90;99.90
15288;DHT22;7745;48.708;9.026;2022-09-17T04:17:08;9.90;99.90
15288;DHT22;7745;48.708;9.026;2022-09-17T04:19:34;9.80;99.90
15288;DHT22;7745;48.708;9.026;2022-09-17T04:22:01;9.80;99.90
15288;DHT22;7745;48.708;9.026;2022-09-17T04:24:28;10.00;99.90
15288;DHT22;7745;48.708;9.026;2022-09-17T04:26:55;9.80;99.90
15288;DHT22;7745;48.708;9.026;2022-09-17T04:29:23;9.80;99.90
15288;DHT22;7745;48.708;9.026;2022-09-17T04:31:50;9.80;99.90
15288;DHT22;7745;48.708;9.026;2022-09-17T04:34:17;9.90;99.90
15288;DHT22;7745;48.708;9.026;2022-09-17T04:36:44;9.70;99.90
15288;DHT22;7745;48.708;9.026;2022-09-17T04:39:11;9.70;99.90
15288;DHT22;7745;48.708;9.026;2022-09-17T04:41:37;9.70;99.90
15288;DHT22;7745;48.708;9.026;2022-09-17T04:44:04;9.70;99.90
15288;DHT22;7745;48.708;9.026;2022-09-17T04:46:33;9.70;99.90
15288;DHT22;7745;48.708;9.026;2022-09-17T04:48:59;9.70;99.90
15288;DHT22;7745;48.708;9.026;2022-09-17T04:51:26;9.70;99.90
15288;DHT22;7745;48.708;9.026;2022-09-17T04:53:53;9.60;99.90
15288;DHT22;7745;48.708;9.026;2022-09-17T04:56:20;9.70;99.90
15288;DHT22;7745;48.708;9.026;2022-09-17T04:58:46;9.60;99.90
15288;DHT22;7745;48.708;9.026;2022-09-17T05:01:14;9.80;99.90
15288;DHT22;7745;48.708;9.026;2022-09-17T05:03:44;9.70;99.90
15288;DHT22;7745;48.708;9.026;2022-09-17T05:06:11;9.70;99.90
15288;DHT22;7745;48.708;9.026;2022-09-17T05:08:38;9.70;99.90
15288;DHT22;7745;48.708;9.026;2022-09-17T05:11:04;9.80;99.90
15288;DHT22;7745;48.708;9.026;2022-09-17T05:13:31;9.70;99.90
15288;DHT22;7745;48.708;9.026;2022-09-17T05:15:58;9.70;99.90
15288;DHT22;7745;48.708;9.026;2022-09-17T05:18:25;9.70;99.90
15288;DHT22;7745;48.708;9.026;2022-09-17T05:20:53;9.90;99.90
15288;DHT22;7745;48.708;9.026;2022-09-17T05:23:21;9.80;99.90
15288;DHT22;7745;48.708;9.026;2022-09-17T05:25:48;9.80;99.90
15288;DHT22;7745;48.708;9.026;2022-09-17T05:28:15;9.80;99.90
15288;DHT22;7745;48.708;9.026;2022-09-17T05:30:42;9.90;99.90
15288;DHT22;7745;48.708;9.026;2022-09-17T05:33:08;9.90;99.90
15288;DHT22;7745;48.708;9.026;2022-09-17T05:35:35;9.70;99.90
15288;DHT22;7745;48.708;9.026;2022-09-17T05:38:05;9.80;99.90
15288;DHT22;7745;48.708;9.026;2022-09-17T05:40:33;9.90;99.90
15288;DHT22;7745;48.708;9.026;2022-09-17T05:43:00;9.80;99.90
15288;DHT22;7745;48.708;9.026;2022-09-17T05:45:27;9.80;99.90
15288;DHT22;7745;48.708;9.026;2022-09-17T05:47:55;9.80;99.90
15288;DHT22;7745;48.708;9.026;2022-09-17T05:50:22;10.00;99.90
15288;DHT22;7745;48.708;9.026;2022-09-17T05:52:49;9.90;99.90
15288;DHT22;7745;48.708;9.026;2022-09-17T05:55:18;9.90;99.90
15288;DHT22;7745;48.708;9.026;2022-09-17T05:57:46;10.10;99.90
15288;DHT22;7745;48.708;9.026;2022-09-17T06:00:14;9.90;99.90
15288;DHT22;7745;48.708;9.026;2022-09-17T06:02:41;9.90;99.90
15288;DHT22;7745;48.708;9.026;2022-09-17T06:05:08;10.10;99.90
15288;DHT22;7745;48.708;9.026;2022-09-17T06:07:36;10.00;99.90
15288;DHT22;7745;48.708;9.026;2022-09-17T06:10:04;10.20;99.90
15288;DHT22;7745;48.708;9.026;2022-09-17T06:12:34;10.20;99.90
15288;DHT22;7745;48.708;9.026;2022-09-17T06:15:01;10.30;99.90
15288;DHT22;7745;48.708;9.026;2022-09-17T06:17:28;10.40;99.90
15288;DHT22;7745;48.708;9.026;2022-09-17T06:19:54;10.40;99.90
15288;DHT22;7745;48.708;9.026;2022-09-17T06:22:21;10.50;99.90
15288;DHT22;7745;48.708;9.026;2022-09-17T06:24:48;10.40;99.90
15288;DHT22;7745;48.708;9.026;2022-09-17T06:27:14;10.50;99.90
15288;DHT22;7745;48.708;9.026;2022-09-17T06:29:42;10.40;99.90
15288;DHT22;7745;48.708;9.026;2022-09-17T06:32:09;10.40;99.90
15288;DHT22;7745;48.708;9.026;2022-09-17T06:34:37;10.50;99.90
15288;DHT22;7745;48.708;9.026;2022-09-17T06:37:04;10.40;99.90
15288;DHT22;7745;48.708;9.026;2022-09-17T06:39:31;10.40;99.90
15288;DHT22;7745;48.708;9.026;2022-09-17T06:41:58;10.20;99.90
15288;DHT22;7745;48.708;9.026;2022-09-17T06:44:25;10.30;99.90
15288;DHT22;7745;48.708;9.026;2022-09-17T06:46:53;10.20;99.90
15288;DHT22;7745;48.708;9.026;2022-09-17T06:49:20;10.20;99.90
15288;DHT22;7745;48.708;9.026;2022-09-17T06:51:47;10.30;99.90
15288;DHT22;7745;48.708;9.026;2022-09-17T06:54:13;10.20;99.90
15288;DHT22;7745;48.708;9.026;2022-09-17T06:56:40;10.20;99.90
15288;DHT22;7745;48.708;9.026;2022-09-17T06:59:07;10.40;99.90
15288;DHT22;7745;48.708;9.026;2022-09-17T07:01:34;10.20;99.90
15288;DHT22;7745;48.708;9.026;2022-09-17T07:04:02;10.20;99.90
15288;DHT22;7745;48.708;9.026;2022-09-17T07:06:29;10.20;99.90
15288;DHT22;7745;48.708;9.026;2022-09-17T07:08:56;10.20;99.90
15288;DHT22;7745;48.708;9.026;2022-09-17T07:11:23;10.20;99.90
15288;DHT22;7745;48.708;9.026;2022-09-17T07:13:50;10.10;99.90
15288;DHT22;7745;48.708;9.026;2022-09-17T07:16:17;10.20;99.90
15288;DHT22;7745;48.708;9.026;2022-09-17T07:18:44;10.10;99.90
15288;DHT22;7745;48.708;9.026;2022-09-17T07:21:12;10.00;99.90
15288;DHT22;7745;48.708;9.026;2022-09-17T07:23:38;10.00;99.90
15288;DHT22;7745;48.708;9.026;2022-09-17T07:26:07;10.00;99.90
15288;DHT22;7745;48.708;9.026;2022-09-17T07:28:36;10.10;99.90
15288;DHT22;7745;48.708;9.026;2022-09-17T07:31:04;10.00;99.90
15288;DHT22;7745;48.708;9.026;2022-09-17T07:33:30;10.20;99.90
15288;DHT22;7745;48.708;9.026;2022-09-17T07:35:59;10.10;99.90
15288;DHT22;7745;48.708;9.026;2022-09-17T07:38:28;10.10;99.90
15288;DHT22;7745;48.708;9.026;2022-09-17T07:41:01;10.30;99.90
15288;DHT22;7745;48.708;9.026;2022-09-17T07:43:30;10.20;99.90
15288;DHT22;7745;48.708;9.026;2022-09-17T07:45:58;10.30;99.90
15288;DHT22;7745;48.708;9.026;2022-09-17T07:48:26;10.10;99.90
15288;DHT22;7745;48.708;9.026;2022-09-17T07:50:53;9.90;99.90
15288;DHT22;7745;48.708;9.026;2022-09-17T07:53:20;9.90;99.90
15288;DHT22;7745;48.708;9.026;2022-09-17T07:55:53;9.80;99.90
15288;DHT22;7745;48.708;9.026;2022-09-17T07:58:20;9.70;99.90
15288;DHT22;7745;48.708;9.026;2022-09-17T08:00:47;9.70;99.90
15288;DHT22;7745;48.708;9.026;2022-09-17T08:03:14;9.70;99.90
15288;DHT22;7745;48.708;9.026;2022-09-17T08:05:41;9.60;99.90
15288;DHT22;7745;48.708;9.026;2022-09-17T08:08:08;9.60;99.90
15288;DHT22;7745;48.708;9.026;2022-09-17T08:10:34;9.70;99.90
15288;DHT22;7745;48.708;9.026;2022-09-17T08:13:05;9.60;99.90
15288;DHT22;7745;48.708;9.026;2022-09-17T08:15:32;9.70;99.90
15288;DHT22;7745;48.708;9.026;2022-09-17T08:18:08;9.80;99.90
15288;DHT22;7745;48.708;9.026;2022-09-17T08:20:43;9.90;99.90
15288;DHT22;7745;48.708;9.026;2022-09-17T08:23:10;9.90;99.90
15288;DHT22;7745;48.708;9.026;2022-09-17T08:25:37;10.00;99.90
15288;DHT22;7745;48.708;9.026;2022-09-17T08:28:05;9.90;99.90
15288;DHT22;7745;48.708;9.026;2022-09-17T08:30:41;10.20;99.90
15288;DHT22;7745;48.708;9.026;2022-09-17T08:33:08;10.20;99.90
15288;DHT22;7745;48.708;9.026;2022-09-17T08:35:37;10.30;99.90
15288;DHT22;7745;48.708;9.026;2022-09-17T08:38:05;10.30;99.90
15288;DHT22;7745;48.708;9.026;2022-09-17T08:40:39;10.40;99.90
15288;DHT22;7745;48.708;9.026;2022-09-17T08:43:19;10.30;99.90
15288;DHT22;7745;48.708;9.026;2022-09-17T08:45:52;10.50;99.90
15288;DHT22;7745;48.708;9.026;2022-09-17T08:48:20;10.50;99.90
15288;DHT22;7745;48.708;9.026;2022-09-17T08:50:48;10.50;99.90
15288;DHT22;7745;48.708;9.026;2022-09-17T08:53:41;10.60;99.90
15288;DHT22;7745;48.708;9.026;2022-09-17T08:56:15;10.70;99.90
15288;DHT22;7745;48.708;9.026;2022-09-17T08:58:58;10.70;99.90
15288;DHT22;7745;48.708;9.026;2022-09-17T09:01:32;10.80;99.90
15288;DHT22;7745;48.708;9.026;2022-09-17T09:07:15;11.00;99.90
15288;DHT22;7745;48.708;9.026;2022-09-17T09:09:45;11.00;99.90
15288;DHT22;7745;48.708;9.026;2022-09-17T09:12:18;11.00;99.90
15288;DHT22;7745;48.708;9.026;2022-09-17T09:14:55;10.90;99.90
15288;DHT22;7745;48.708;9.026;2022-09-17T09:17:25;10.80;99.90
15288;DHT22;7745;48.708;9.026;2022-09-17T09:19:54;10.80;99.90
15288;DHT22;7745;48.708;9.026;2022-09-17T09:22:39;10.70;99.90
15288;DHT22;7745;48.708;9.026;2022-09-17T09:25:17;10.80;99.90
15288;DHT22;7745;48.708;9.026;2022-09-17T09:28:02;10.80;99.90
15288;DHT22;7745;48.708;9.026;2022-09-17T09:30:38;10.90;99.90
15288;DHT22;7745;48.708;9.026;2022-09-17T09:33:12;10.90;99.90
15288;DHT22;7745;48.708;9.026;2022-09-17T09:35:41;11.00;99.90
15288;DHT22;7745;48.708;9.026;2022-09-17T09:38:17;11.10;99.90
15288;DHT22;7745;48.708;9.026;2022-09-17T09:40:52;11.20;99.90
15288;DHT22;7745;48.708;9.026;2022-09-17T09:43:22;11.20;99.90
15288;DHT22;7745;48.708;9.026;2022-09-17T09:46:07;11.20;99.90
15288;DHT22;7745;48.708;9.026;2022-09-17T09:48:42;11.30;99.90
15288;DHT22;7745;48.708;9.026;2022-09-17T09:51:20;11.30;99.90
15288;DHT22;7745;48.708;9.026;2022-09-17T09:54:02;11.40;99.90
15288;DHT22;7745;48.708;9.026;2022-09-17T09:56:46;11.40;99.90
15288;DHT22;7745;48.708;9.026;2022-09-17T09:59:15;11.50;99.90
15288;DHT22;7745;48.708;9.026;2022-09-17T10:01:45;11.80;99.90
15288;DHT22;7745;48.708;9.026;2022-09-17T10:04:17;11.90;99.90
15288;DHT22;7745;48.708;9.026;2022-09-17T10:06:45;12.10;99.90
15288;DHT22;7745;48.708;9.026;2022-09-17T10:09:13;12.10;99.90
15288;DHT22;7745;48.708;9.026;2022-09-17T10:11:42;12.30;99.90
15288;DHT22;7745;48.708;9.026;2022-09-17T10:14:22;12.20;99.90
15288;DHT22;7745;48.708;9.026;2022-09-17T10:17:10;12.20;99.90
15288;DHT22;7745;48.708;9.026;2022-09-17T10:19:39;12.20;99.90
15288;DHT22;7745;48.708;9.026;2022-09-17T10:22:21;12.30;99.90
15288;DHT22;7745;48.708;9.026;2022-09-17T10:24:50;12.40;99.90
15288;DHT22;7745;48.708;9.026;2022-09-17T10:27:19;12.50;99.90
15288;DHT22;7745;48.708;9.026;2022-09-17T10:29:48;12.80;99.90
15288;DHT22;7745;48.708;9.026;2022-09-17T10:32:26;12.80;99.90
15288;DHT22;7745;48.708;9.026;2022-09-17T10:35:25;12.80;99.90
15288;DHT22;7745;48.708;9.026;2022-09-17T10:37:57;12.90;99.90
15288;DHT22;7745;48.708;9.026;2022-09-17T10:40:27;13.00;99.90
15288;DHT22;7745;48.708;9.026;2022-09-17T10:43:22;13.00;99.90
15288;DHT22;7745;48.708;9.026;2022-09-17T10:45:56;13.20;99.90
15288;DHT22;7745;48.708;9.026;2022-09-17T10:48:27;13.20;99.90
15288;DHT22;7745;48.708;9.026;2022-09-17T10:50:56;13.30;99.90
15288;DHT22;7745;48.708;9.026;2022-09-17T10:53:25;13.30;99.90
15288;DHT22;7745;48.708;9.026;2022-09-17T10:56:05;13.10;99.90
15288;DHT22;7745;48.708;9.026;2022-09-17T10:58:42;13.00;99.90
15288;DHT22;7745;48.708;9.026;2022-09-17T11:01:22;12.90;99.90
15288;DHT22;7745;48.708;9.026;2022-09-17T11:04:12;12.80;99.90
15288;DHT22;7745;48.708;9.026;2022-09-17T11:06:53;12.70;99.90
15288;DHT22;7745;48.708;9.026;2022-09-17T11:09:57;12.80;99.90
15288;DHT22;7745;48.708;9.026;2022-09-17T11:12:40;13.00;99.90
15288;DHT22;7745;48.708;9.026;2022-09-17T11:15:19;13.40;99.90
15288;DHT22;7745;48.708;9.026;2022-09-17T11:18:05;13.10;99.90
15288;DHT22;7745;48.708;9.026;2022-09-17T11:20:49;13.10;99.90
15288;DHT22;7745;48.708;9.026;2022-09-17T11:23:35;13.20;99.90
15288;DHT22;7745;48.708;9.026;2022-09-17T11:29:24;13.40;99.90
15288;DHT22;7745;48.708;9.026;2022-09-17T11:32:11;13.50;99.90
15288;DHT22;7745;48.708;9.026;2022-09-17T11:34:53;13.40;99.90
15288;DHT22;7745;48.708;9.026;2022-09-17T11:37:57;13.40;99.90
15288;DHT22;7745;48.708;9.026;2022-09-17T11:40:43;13.30;99.90
15288;DHT22;7745;48.708;9.026;2022-09-17T11:43:17;13.10;99.90
15288;DHT22;7745;48.708;9.026;2022-09-17T11:45:56;13.30;99.90
15288;DHT22;7745;48.708;9.026;2022-09-17T11:48:28;13.30;99.90
15288;DHT22;7745;48.708;9.026;2022-09-17T11:51:04;13.40;99.90
15288;DHT22;7745;48.708;9.026;2022-09-17T11:53:38;13.50;99.90
15288;DHT22;7745;48.708;9.026;2022-09-17T11:56:13;13.60;99.90
15288;DHT22;7745;48.708;9.026;2022-09-17T11:58:50;13.80;99.90
15288;DHT22;7745;48.708;9.026;2022-09-17T12:01:33;13.90;99.90
15288;DHT22;7745;48.708;9.026;2022-09-17T12:04:40;14.00;99.90
15288;DHT22;7745;48.708;9.026;2022-09-17T12:11:00;14.00;99.90
15288;DHT22;7745;48.708;9.026;2022-09-17T12:13:35;13.90;99.90
15288;DHT22;7745;48.708;9.026;2022-09-17T12:16:13;13.90;99.90
15288;DHT22;7745;48.708;9.026;2022-09-17T12:18:55;14.00;99.90
15288;DHT22;7745;48.708;9.026;2022-09-17T12:21:30;13.90;99.90
15288;DHT22;7745;48.708;9.026;2022-09-17T12:24:06;13.90;99.90
15288;DHT22;7745;48.708;9.026;2022-09-17T12:27:11;13.90;99.90
15288;DHT22;7745;48.708;9.026;2022-09-17T12:30:09;13.90;99.90
15288;DHT22;7745;48.708;9.026;2022-09-17T12:33:02;13.90;99.90
15288;DHT22;7745;48.708;9.026;2022-09-17T12:35:46;13.90;99.90
15288;DHT22;7745;48.708;9.026;2022-09-17T12:38:28;14.00;99.90
15288;DHT22;7745;48.708;9.026;2022-09-17T12:41:01;14.10;99.90
15288;DHT22;7745;48.708;9.026;2022-09-17T12:43:42;14.10;99.90
15288;DHT22;7745;48.708;9.026;2022-09-17T12:46:24;14.00;99.90
15288;DHT22;7745;48.708;9.026;2022-09-17T12:49:08;13.90;99.90
15288;DHT22;7745;48.708;9.026;2022-09-17T12:51:53;13.60;99.90
15288;DHT22;7745;48.708;9.026;2022-09-17T12:54:50;13.40;99.90
15288;DHT22;7745;48.708;9.026;2022-09-17T12:57:31;13.20;99.90
15288;DHT22;7745;48.708;9.026;2022-09-17T13:00:04;12.90;99.90
15288;DHT22;7745;48.708;9.026;2022-09-17T13:02:35;12.50;99.90
15288;DHT22;7745;48.708;9.026;2022-09-17T13:08:12;11.80;99.90
15288;DHT22;7745;48.708;9.026;2022-09-17T13:11:17;11.40;99.90
15288;DHT22;7745;48.708;9.026;2022-09-17T13:13:51;11.00;99.90
15288;DHT22;7745;48.708;9.026;2022-09-17T13:16:26;10.70;99.90
15288;DHT22;7745;48.708;9.026;2022-09-17T13:19:03;10.50;99.90
15288;DHT22;7745;48.708;9.026;2022-09-17T13:21:37;10.30;99.90
15288;DHT22;7745;48.708;9.026;2022-09-17T13:24:14;10.50;99.90
15288;DHT22;7745;48.708;9.026;2022-09-17T13:26:41;10.50;99.90
15288;DHT22;7745;48.708;9.026;2022-09-17T13:29:10;10.70;99.90
15288;DHT22;7745;48.708;9.026;2022-09-17T13:31:48;10.80;99.90
15288;DHT22;7745;48.708;9.026;2022-09-17T13:34:45;11.00;99.90
15288;DHT22;7745;48.708;9.026;2022-09-17T13:37:17;11.10;99.90
15288;DHT22;7745;48.708;9.026;2022-09-17T13:39:46;11.20;99.90
15288;DHT22;7745;48.708;9.026;2022-09-17T13:42:19;11.30;99.90
15288;DHT22;7745;48.708;9.026;2022-09-17T13:44:50;11.60;99.90
15288;DHT22;7745;48.708;9.026;2022-09-17T13:50:40;11.80;99.90
15288;DHT22;7745;48.708;9.026;2022-09-17T13:53:16;11.90;99.90
15288;DHT22;7745;48.708;9.026;2022-09-17T13:55:47;12.10;99.90
15288;DHT22;7745;48.708;9.026;2022-09-17T13:58:23;12.00;99.90
15288;DHT22;7745;48.708;9.026;2022-09-17T14:00:56;12.00;99.90
15288;DHT22;7745;48.708;9.026;2022-09-17T14:03:50;12.20;99.90
15288;DHT22;7745;48.708;9.026;2022-09-17T14:06:49;12.30;99.90
15288;DHT22;7745;48.708;9.026;2022-09-17T14:09:51;12.40;99.90
15288;DHT22;7745;48.708;9.026;2022-09-17T14:12:49;12.40;99.90
15288;DHT22;7745;48.708;9.026;2022-09-17T14:18:57;12.40;99.90
15288;DHT22;7745;48.708;9.026;2022-09-17T14:21:28;12.30;99.90
15288;DHT22;7745;48.708;9.026;2022-09-17T14:23:59;12.40;99.90
15288;DHT22;7745;48.708;9.026;2022-09-17T14:26:54;12.50;99.90
15288;DHT22;7745;48.708;9.026;2022-09-17T14:29:49;12.50;99.90
15288;DHT22;7745;48.708;9.026;2022-09-17T14:32:28;12.50;99.90
15288;DHT22;7745;48.708;9.026;2022-09-17T14:35:17;12.50;99.90
15288;DHT22;7745;48.708;9.026;2022-09-17T14:37:49;12.30;99.90
15288;DHT22;7745;48.708;9.026;2022-09-17T14:40:21;12.30;99.90
15288;DHT22;7745;48.708;9.026;2022-09-17T14:42:50;12.40;99.90
15288;DHT22;7745;48.708;9.026;2022-09-17T14:45:21;12.50;99.90
15288;DHT22;7745;48.708;9.026;2022-09-17T14:47:48;12.50;99.90
15288;DHT22;7745;48.708;9.026;2022-09-17T14:50:20;12.40;99.90
15288;DHT22;7745;48.708;9.026;2022-09-17T14:52:48;12.50;99.90
15288;DHT22;7745;48.708;9.026;2022-09-17T14:55:24;12.50;99.90
15288;DHT22;7745;48.708;9.026;2022-09-17T14:57:55;12.60;99.90
15288;DHT22;7745;48.708;9.026;2022-09-17T15:00:24;12.70;99.90
15288;DHT22;7745;48.708;9.026;2022-09-17T15:02:52;12.70;99.90
15288;DHT22;7745;48.708;9.026;2022-09-17T15:05:28;12.80;99.90
15288;DHT22;7745;48.708;9.026;2022-09-17T15:08:18;12.70;99.90
15288;DHT22;7745;48.708;9.026;2022-09-17T15:10:51;12.70;99.90
15288;DHT22;7745;48.708;9.026;2022-09-17T15:13:29;12.70;99.90
15288;DHT22;7745;48.708;9.026;2022-09-17T15:16:12;12.80;99.90
15288;DHT22;7745;48.708;9.026;2022-09-17T15:18:46;12.80;99.90
15288;DHT22;7745;48.708;9.026;2022-09-17T15:21:28;12.80;99.90
15288;DHT22;7745;48.708;9.026;2022-09-17T15:27:25;12.90;99.90
15288;DHT22;7745;48.708;9.026;2022-09-17T15:29:57;13.00;99.90
15288;DHT22;7745;48.708;9.026;2022-09-17T15:32:25;12.70;99.90
15288;DHT22;7745;48.708;9.026;2022-09-17T15:37:57;12.60;99.90
15288;DHT22;7745;48.708;9.026;2022-09-17T15:40:29;12.60;99.90
15288;DHT22;7745;48.708;9.026;2022-09-17T15:43:14;12.60;99.90
15288;DHT22;7745;48.708;9.026;2022-09-17T15:45:47;12.60;99.90
15288;DHT22;7745;48.708;9.026;2022-09-17T15:48:39;12.70;99.90
15288;DHT22;7745;48.708;9.026;2022-09-17T15:51:21;12.70;99.90
15288;DHT22;7745;48.708;9.026;2022-09-17T15:53:56;12.70;99.90
15288;DHT22;7745;48.708;9.026;2022-09-17T15:56:33;12.80;99.90
15288;DHT22;7745;48.708;9.026;2022-09-17T15:59:25;12.70;99.90
15288;DHT22;7745;48.708;9.026;2022-09-17T16:01:55;12.60;99.90
15288;DHT22;7745;48.708;9.026;2022-09-17T16:04:26;12.70;99.90
15288;DHT22;7745;48.708;9.026;2022-09-17T16:09:50;12.50;99.90
15288;DHT22;7745;48.708;9.026;2022-09-17T16:12:18;12.50;99.90
15288;DHT22;7745;48.708;9.026;2022-09-17T16:14:49;12.50;99.90
15288;DHT22;7745;48.708;9.026;2022-09-17T16:17:32;12.50;99.90
15288;DHT22;7745;48.708;9.026;2022-09-17T16:20:12;12.50;99.90
15288;DHT22;7745;48.708;9.026;2022-09-17T16:22:40;12.60;99.90
15288;DHT22;7745;48.708;9.026;2022-09-17T16:25:08;12.70;99.90
15288;DHT22;7745;48.708;9.026;2022-09-17T16:27:42;12.70;99.90
15288;DHT22;7745;48.708;9.026;2022-09-17T16:30:14;12.70;99.90
15288;DHT22;7745;48.708;9.026;2022-09-17T16:32:42;12.60;99.90
15288;DHT22;7745;48.708;9.026;2022-09-17T16:35:12;12.60;99.90
15288;DHT22;7745;48.708;9.026;2022-09-17T16:37:39;12.60;99.90
15288;DHT22;7745;48.708;9.026;2022-09-17T16:40:08;12.60;99.90
15288;DHT22;7745;48.708;9.026;2022-09-17T16:42:38;12.50;99.90
15288;DHT22;7745;48.708;9.026;2022-09-17T16:45:06;12.50;99.90
15288;DHT22;7745;48.708;9.026;2022-09-17T16:47:35;12.40;99.90
15288;DHT22;7745;48.708;9.026;2022-09-17T16:50:04;12.30;99.90
15288;DHT22;7745;48.708;9.026;2022-09-17T16:52:31;12.30;99.90
15288;DHT22;7745;48.708;9.026;2022-09-17T16:54:58;12.20;99.90
15288;DHT22;7745;48.708;9.026;2022-09-17T16:57:25;12.20;99.90
15288;DHT22;7745;48.708;9.026;2022-09-17T16:59:52;12.10;99.90
15288;DHT22;7745;48.708;9.026;2022-09-17T17:02:19;12.10;99.90
15288;DHT22;7745;48.708;9.026;2022-09-17T17:04:47;12.00;99.90